Terminal Aerodrome Forecast
Issued by NWS

Home | Current Version | Previous Version | Text Only | Print | Product List | Glossary On
Versions: 1 2 3 4 5 6 7 8 9 10 11 12 13 14 15 16 17 18 19 20 21 22 23 24 25 26 27 28 29 30 31 32 33 34 35 36 37 38 39 40 41
000
FTAK31 PAFA 221739
TAFABT
TAF
PABT 221739Z 2218/2318 00000KT P6SM FEW110
     FM230000 20004KT P6SM VCSH BKN035 OVC050
     FM230300 18005KT 6SM -RA BR OVC035
     FM230600 18005KT 4SM -RA BR OVC025
     FM230900 17004KT 1 1/2SM -RA BR BKN015 OVC050=

USA.gov is the U.S. government's official web portal to all federal, state and local government web resources and services.